createdAt,value
2023-03-29T00:00:38.927Z,65.40
2023-03-29T00:03:06.374Z,65.30
2023-03-29T00:05:36.522Z,65.10
2023-03-29T00:08:04.622Z,65.30
2023-03-29T00:10:33.820Z,65.00
2023-03-29T00:13:01.944Z,64.80
2023-03-29T00:15:29.323Z,64.90
2023-03-29T00:17:57.774Z,65.20
2023-03-29T00:20:25.010Z,64.80
2023-03-29T00:22:52.273Z,64.80
2023-03-29T00:25:19.567Z,65.10
2023-03-29T00:27:47.194Z,65.60
2023-03-29T00:30:15.310Z,65.80
2023-03-29T00:32:42.988Z,65.80
2023-03-29T00:35:11.221Z,65.70
2023-03-29T00:37:38.645Z,65.90
2023-03-29T00:40:09.844Z,66.70
2023-03-29T00:42:37.766Z,67.20
2023-03-29T00:45:12.798Z,68.50
2023-03-29T00:48:00.349Z,69.60
2023-03-29T00:50:54.666Z,70.20
2023-03-29T00:53:34.360Z,70.90
2023-03-29T00:56:14.856Z,71.20
2023-03-29T00:58:50.123Z,71.50
2023-03-29T01:01:26.230Z,72.70
2023-03-29T01:04:00.291Z,73.20
2023-03-29T01:06:31.596Z,73.50
2023-03-29T01:09:02.389Z,74.10
2023-03-29T01:11:42.107Z,74.40
2023-03-29T01:14:19.072Z,74.50
2023-03-29T01:16:47.103Z,74.90
2023-03-29T01:19:19.246Z,75.40
2023-03-29T01:21:51.883Z,75.80
2023-03-29T01:24:45.577Z,75.70
2023-03-29T01:27:15.955Z,75.30
2023-03-29T01:29:50.318Z,75.50
2023-03-29T01:32:26.927Z,76.10
2023-03-29T01:35:03.647Z,76.50
2023-03-29T01:37:59.044Z,76.90
2023-03-29T01:40:29.077Z,76.70
2023-03-29T01:43:19.423Z,76.60
2023-03-29T01:45:53.001Z,76.10
2023-03-29T01:48:44.305Z,75.90
2023-03-29T01:51:17.818Z,75.20
2023-03-29T01:54:03.649Z,75.10
2023-03-29T01:56:37.025Z,73.00
2023-03-29T01:59:08.612Z,73.30
2023-03-29T02:01:40.587Z,73.80
2023-03-29T02:04:13.506Z,73.90
2023-03-29T02:06:41.873Z,73.20
2023-03-29T02:09:09.720Z,73.60
2023-03-29T02:11:37.604Z,74.10
2023-03-29T02:14:05.645Z,73.10
2023-03-29T02:16:39.620Z,72.40
2023-03-29T02:19:10.171Z,71.60
2023-03-29T02:21:43.637Z,71.00
2023-03-29T02:24:15.610Z,70.60
2023-03-29T02:26:43.435Z,68.10
2023-03-29T02:29:11.123Z,68.90
2023-03-29T02:31:46.515Z,69.10
2023-03-29T02:34:50.999Z,68.30
2023-03-29T02:37:21.928Z,67.10
2023-03-29T02:39:51.482Z,67.20
2023-03-29T02:42:20.671Z,66.30
2023-03-29T02:44:52.873Z,66.80
2023-03-29T02:47:28.944Z,66.20
2023-03-29T02:49:57.354Z,66.20
2023-03-29T02:52:28.769Z,65.50
2023-03-29T02:54:57.207Z,64.30
2023-03-29T02:57:26.901Z,63.30
2023-03-29T02:59:57.221Z,63.00
2023-03-29T03:02:28.039Z,63.60
2023-03-29T03:04:55.635Z,63.10
2023-03-29T03:07:22.906Z,62.00
2023-03-29T03:09:50.219Z,62.70
2023-03-29T03:12:17.755Z,63.50
2023-03-29T03:14:45.064Z,61.70
2023-03-29T03:17:12.485Z,61.10
2023-03-29T03:19:39.956Z,60.30
2023-03-29T03:22:08.018Z,60.70
2023-03-29T03:24:35.644Z,60.20
2023-03-29T03:27:03.000Z,60.10
2023-03-29T03:29:30.312Z,60.40
2023-03-29T03:31:57.783Z,60.80
2023-03-29T03:34:25.141Z,60.60
2023-03-29T03:36:55.656Z,59.80
2023-03-29T03:39:23.233Z,59.40
2023-03-29T03:41:50.534Z,59.30
2023-03-29T03:44:17.815Z,59.20
2023-03-29T03:46:45.094Z,59.30
2023-03-29T03:49:12.401Z,58.40
2023-03-29T03:51:39.743Z,57.90
2023-03-29T03:54:07.069Z,58.30
2023-03-29T03:56:34.469Z,58.50
2023-03-29T03:59:01.631Z,58.70
2023-03-29T04:01:28.868Z,59.00
2023-03-29T04:03:56.169Z,59.20
2023-03-29T04:06:23.592Z,59.10
2023-03-29T04:08:50.858Z,58.50
2023-03-29T04:11:18.141Z,58.40
2023-03-29T04:13:46.382Z,58.10
2023-03-29T04:16:13.647Z,57.20
2023-03-29T04:18:41.365Z,58.50
2023-03-29T04:21:08.793Z,58.00
2023-03-29T04:23:39.567Z,57.80
2023-03-29T04:26:07.994Z,58.40
2023-03-29T04:28:35.602Z,58.90
2023-03-29T04:31:03.008Z,58.00
2023-03-29T04:33:30.754Z,58.10
2023-03-29T04:35:58.801Z,57.70
2023-03-29T04:38:26.922Z,58.10
2023-03-29T04:40:55.270Z,57.00
2023-03-29T04:43:23.712Z,57.20
2023-03-29T04:45:51.158Z,57.50
2023-03-29T04:48:18.446Z,57.40
2023-03-29T04:50:48.755Z,57.60
2023-03-29T04:53:15.958Z,57.70
2023-03-29T04:55:43.519Z,56.90
2023-03-29T04:58:10.702Z,56.90
2023-03-29T05:00:38.169Z,56.70
2023-03-29T05:03:06.185Z,57.30
2023-03-29T05:05:33.569Z,56.90
2023-03-29T05:08:00.929Z,57.10
2023-03-29T05:10:28.434Z,56.80
2023-03-29T05:12:58.909Z,56.70
2023-03-29T05:15:26.481Z,56.80
2023-03-29T05:17:53.854Z,57.20
2023-03-29T05:20:22.324Z,57.60
2023-03-29T05:22:49.618Z,56.40
2023-03-29T05:25:18.607Z,56.90
2023-03-29T05:27:50.056Z,57.00
2023-03-29T05:30:17.714Z,57.40
2023-03-29T05:32:51.010Z,56.30
2023-03-29T05:35:18.266Z,55.70
2023-03-29T05:37:47.860Z,56.00
2023-03-29T05:40:15.268Z,56.10
2023-03-29T05:42:42.965Z,55.00
2023-03-29T05:45:11.669Z,55.90
2023-03-29T05:47:39.243Z,55.20
2023-03-29T05:50:10.567Z,55.80
2023-03-29T05:52:39.001Z,55.70
2023-03-29T05:55:06.871Z,55.90
2023-03-29T05:57:37.802Z,55.00
2023-03-29T06:00:25.978Z,54.70
2023-03-29T06:02:53.977Z,55.60
2023-03-29T06:05:21.290Z,55.30
2023-03-29T06:07:52.197Z,55.10
2023-03-29T06:10:20.530Z,56.40
2023-03-29T06:12:47.927Z,54.60
2023-03-29T06:15:16.252Z,55.20
2023-03-29T06:17:47.479Z,54.80
2023-03-29T06:20:15.110Z,54.30
2023-03-29T06:22:42.748Z,54.60
2023-03-29T06:25:14.837Z,54.70
2023-03-29T06:27:42.213Z,54.70
2023-03-29T06:30:10.020Z,54.60
2023-03-29T06:32:37.659Z,54.80
2023-03-29T06:35:05.322Z,55.00
2023-03-29T06:37:32.959Z,54.90
2023-03-29T06:40:01.221Z,54.00
2023-03-29T06:42:28.727Z,54.30
2023-03-29T06:44:55.943Z,54.20
2023-03-29T06:47:29.388Z,54.40
2023-03-29T06:49:57.727Z,54.50
2023-03-29T06:52:25.065Z,54.10
2023-03-29T06:54:52.407Z,54.10
2023-03-29T06:57:19.939Z,54.20
2023-03-29T06:59:48.160Z,54.70
2023-03-29T07:02:15.968Z,54.90
2023-03-29T07:04:43.386Z,54.10
2023-03-29T07:07:20.534Z,54.20
2023-03-29T07:09:54.115Z,54.00
2023-03-29T07:12:23.269Z,54.30
2023-03-29T07:14:50.608Z,53.40
2023-03-29T07:17:18.790Z,53.70
2023-03-29T07:19:47.077Z,54.10
2023-03-29T07:22:15.483Z,53.50
2023-03-29T07:24:42.823Z,53.80
2023-03-29T07:27:10.216Z,53.60
2023-03-29T07:29:37.989Z,53.10
2023-03-29T07:32:05.872Z,52.90
2023-03-29T07:34:33.631Z,54.30
2023-03-29T07:37:01.168Z,52.80
2023-03-29T07:39:28.570Z,53.20
2023-03-29T07:41:58.641Z,52.70
2023-03-29T07:44:27.307Z,52.70
2023-03-29T07:46:55.154Z,52.30
2023-03-29T07:49:22.419Z,52.20
2023-03-29T07:51:49.729Z,52.00
2023-03-29T07:54:17.324Z,51.90
2023-03-29T07:56:44.660Z,51.70
2023-03-29T07:59:11.994Z,51.80
2023-03-29T08:01:41.281Z,51.80
2023-03-29T08:04:08.691Z,52.70
2023-03-29T08:06:36.067Z,51.50
2023-03-29T08:09:03.284Z,51.10
2023-03-29T08:11:30.619Z,51.70
2023-03-29T08:13:59.224Z,52.00
2023-03-29T08:16:27.032Z,50.50
2023-03-29T08:18:54.462Z,51.30
2023-03-29T08:21:21.954Z,50.70
2023-03-29T08:23:49.212Z,51.20
2023-03-29T08:26:16.460Z,51.10
2023-03-29T08:28:44.209Z,51.80
2023-03-29T08:31:14.223Z,51.00
2023-03-29T08:33:44.228Z,51.10
2023-03-29T08:36:11.624Z,50.80
2023-03-29T08:38:38.838Z,50.30
2023-03-29T08:41:36.801Z,49.50
2023-03-29T08:44:33.051Z,49.00
2023-03-29T08:47:03.265Z,48.30
2023-03-29T08:49:31.933Z,48.20
2023-03-29T08:52:04.907Z,47.90
2023-03-29T08:54:46.309Z,47.70
2023-03-29T08:57:23.991Z,47.40
2023-03-29T08:59:53.608Z,47.70
2023-03-29T09:02:26.424Z,47.20
2023-03-29T09:05:00.215Z,47.50
2023-03-29T09:07:28.146Z,46.70
2023-03-29T09:09:55.437Z,45.80
2023-03-29T09:13:02.705Z,45.80
2023-03-29T09:16:01.270Z,45.90
2023-03-29T09:21:46.948Z,45.20
2023-03-29T09:24:24.122Z,46.90
2023-03-29T09:27:23.568Z,47.50
2023-03-29T09:30:06.414Z,46.40
2023-03-29T09:33:06.141Z,44.50
2023-03-29T09:35:41.298Z,45.10
2023-03-29T09:38:13.618Z,43.80
2023-03-29T09:40:55.206Z,44.10
2023-03-29T09:43:31.930Z,43.90
2023-03-29T09:46:03.467Z,44.20
2023-03-29T09:48:37.979Z,44.20
2023-03-29T09:51:08.914Z,43.10
2023-03-29T09:53:36.426Z,43.80
2023-03-29T09:56:06.929Z,44.70
2023-03-29T09:58:37.699Z,42.20
2023-03-29T10:01:16.842Z,42.80
2023-03-29T10:03:54.365Z,42.90
2023-03-29T10:06:25.665Z,41.80
2023-03-29T10:08:59.170Z,40.30
2023-03-29T10:11:30.813Z,41.20
2023-03-29T10:14:03.222Z,42.20
2023-03-29T10:16:47.786Z,42.80
2023-03-29T10:19:44.309Z,41.10
2023-03-29T10:22:27.892Z,41.40
2023-03-29T10:24:57.342Z,40.40
2023-03-29T10:27:31.785Z,41.00
2023-03-29T10:30:00.896Z,39.30
2023-03-29T10:32:33.642Z,39.40
2023-03-29T10:35:21.622Z,38.50
2023-03-29T10:38:00.541Z,40.70
2023-03-29T10:40:38.475Z,38.00
2023-03-29T10:43:17.971Z,38.50
2023-03-29T10:45:50.026Z,39.20
2023-03-29T10:48:18.041Z,39.30
2023-03-29T10:50:58.910Z,38.80
2023-03-29T10:53:32.983Z,39.20
2023-03-29T10:56:25.004Z,38.40
2023-03-29T10:58:55.601Z,38.80
2023-03-29T11:01:30.950Z,37.70
2023-03-29T11:04:26.517Z,39.40
2023-03-29T11:07:08.081Z,41.40
2023-03-29T11:10:15.317Z,41.20
2023-03-29T11:13:15.000Z,41.30
2023-03-29T11:16:16.764Z,42.20
2023-03-29T11:18:55.674Z,40.00
2023-03-29T11:21:30.750Z,39.40
2023-03-29T11:24:34.631Z,38.20
2023-03-29T11:27:41.596Z,37.60
2023-03-29T11:30:20.956Z,37.50
2023-03-29T11:33:05.187Z,38.40
2023-03-29T11:35:55.292Z,36.80
2023-03-29T11:38:34.091Z,36.30
2023-03-29T11:41:19.440Z,37.20
2023-03-29T11:44:01.798Z,36.00
2023-03-29T11:46:41.902Z,36.60
2023-03-29T11:49:19.654Z,36.10
2023-03-29T11:52:34.735Z,35.50
2023-03-29T11:55:08.110Z,36.50
2023-03-29T11:57:48.242Z,36.30
2023-03-29T12:00:27.513Z,36.10
2023-03-29T12:03:14.759Z,35.50
2023-03-29T12:05:51.061Z,36.10
2023-03-29T12:08:41.021Z,36.00
2023-03-29T12:11:23.208Z,34.90
2023-03-29T12:13:57.984Z,34.70
2023-03-29T12:16:50.301Z,35.10
2023-03-29T12:19:32.929Z,34.80
2023-03-29T12:22:01.451Z,33.70
2023-03-29T12:24:31.927Z,32.90
2023-03-29T12:27:08.656Z,32.40
2023-03-29T12:30:17.445Z,33.50
2023-03-29T12:33:10.455Z,32.30
2023-03-29T12:35:54.411Z,33.00
2023-03-29T12:38:24.702Z,32.20
2023-03-29T12:40:57.444Z,32.60
2023-03-29T12:43:33.528Z,31.80
2023-03-29T12:46:25.988Z,31.80
2023-03-29T12:49:01.472Z,30.20
2023-03-29T12:51:34.337Z,30.10
2023-03-29T12:54:15.219Z,31.80
2023-03-29T12:56:58.471Z,30.60
2023-03-29T12:59:39.691Z,29.90
2023-03-29T13:02:16.828Z,29.50
2023-03-29T13:04:44.320Z,29.90
2023-03-29T13:07:35.434Z,29.60
2023-03-29T13:10:13.037Z,31.70
2023-03-29T13:12:43.321Z,33.30
2023-03-29T13:15:19.355Z,32.40
2023-03-29T13:18:20.670Z,30.70
2023-03-29T13:21:09.397Z,30.40
2023-03-29T13:23:52.262Z,30.20
2023-03-29T13:26:45.893Z,29.70
2023-03-29T13:29:56.357Z,29.80
2023-03-29T13:32:50.721Z,31.30
2023-03-29T13:36:11.732Z,29.60
2023-03-29T13:38:49.008Z,29.50
2023-03-29T13:41:38.985Z,30.00
2023-03-29T13:44:29.496Z,29.20
2023-03-29T13:47:29.158Z,30.10
2023-03-29T13:49:58.325Z,31.20
2023-03-29T13:52:32.823Z,31.10
2023-03-29T13:55:18.080Z,32.20
2023-03-29T13:57:59.999Z,32.20
2023-03-29T14:00:51.105Z,32.10
2023-03-29T14:03:33.306Z,31.30
2023-03-29T14:06:02.700Z,30.30
2023-03-29T14:08:35.862Z,31.00
2023-03-29T14:11:08.495Z,31.40
2023-03-29T14:13:35.887Z,33.70
2023-03-29T14:16:09.523Z,31.90
2023-03-29T14:18:55.952Z,30.80
2023-03-29T14:21:23.406Z,30.00
2023-03-29T14:24:00.498Z,30.00
2023-03-29T14:26:33.509Z,29.90
2023-03-29T14:29:02.746Z,31.80
2023-03-29T14:31:42.087Z,30.40
2023-03-29T14:34:22.889Z,30.00
2023-03-29T14:36:54.315Z,31.80
2023-03-29T14:39:23.596Z,31.40
2023-03-29T14:41:54.262Z,30.30
2023-03-29T14:44:23.932Z,30.00
2023-03-29T14:46:51.497Z,30.20
2023-03-29T14:49:25.864Z,29.40
2023-03-29T14:51:54.905Z,29.60
2023-03-29T14:54:26.796Z,30.10
2023-03-29T14:57:00.238Z,29.80
2023-03-29T14:59:45.880Z,29.90
2023-03-29T15:02:33.531Z,30.00
2023-03-29T15:05:07.617Z,30.90
2023-03-29T15:07:41.168Z,31.20
2023-03-29T15:10:09.071Z,30.90
2023-03-29T15:12:39.761Z,31.20
2023-03-29T15:15:12.034Z,31.70
2023-03-29T15:17:50.867Z,32.10
2023-03-29T15:20:27.439Z,32.90
2023-03-29T15:22:59.705Z,33.20
2023-03-29T15:25:33.263Z,33.20
2023-03-29T15:28:01.652Z,33.90
2023-03-29T15:30:37.153Z,35.00
2023-03-29T15:33:44.438Z,35.10
2023-03-29T15:36:24.296Z,35.50
2023-03-29T15:38:51.841Z,35.60
2023-03-29T15:41:21.633Z,35.60
2023-03-29T15:43:48.963Z,35.70
2023-03-29T15:46:24.500Z,36.30
2023-03-29T15:48:51.724Z,36.20
2023-03-29T15:51:21.474Z,37.00
2023-03-29T15:53:51.467Z,36.30
2023-03-29T15:56:21.205Z,35.30
2023-03-29T15:58:48.839Z,36.30
2023-03-29T16:01:23.791Z,35.30
2023-03-29T16:03:51.255Z,35.40
2023-03-29T16:06:31.955Z,35.90
2023-03-29T16:09:02.124Z,34.60
2023-03-29T16:11:29.428Z,35.00
2023-03-29T16:13:57.346Z,34.00
2023-03-29T16:16:25.556Z,34.80
2023-03-29T16:18:52.791Z,36.80
2023-03-29T16:21:22.863Z,37.80
2023-03-29T16:23:57.804Z,38.40
2023-03-29T16:26:26.414Z,39.10
2023-03-29T16:28:58.658Z,38.30
2023-03-29T16:31:31.978Z,36.50
2023-03-29T16:34:00.732Z,37.40
2023-03-29T16:36:28.365Z,39.20
2023-03-29T16:38:55.929Z,40.00
2023-03-29T16:41:23.257Z,39.70
2023-03-29T16:43:50.651Z,40.30
2023-03-29T16:46:17.966Z,41.10
2023-03-29T16:48:45.183Z,41.60
2023-03-29T16:51:12.436Z,42.00
2023-03-29T16:53:42.124Z,41.50
2023-03-29T16:56:10.834Z,41.50
2023-03-29T16:58:47.412Z,41.20
2023-03-29T17:01:27.333Z,41.30
2023-03-29T17:03:59.975Z,42.00
2023-03-29T17:06:34.050Z,42.80
2023-03-29T17:09:01.654Z,43.20
2023-03-29T17:11:29.075Z,43.10
2023-03-29T17:13:56.664Z,43.30
2023-03-29T17:16:24.285Z,43.20
2023-03-29T17:18:51.504Z,43.10
2023-03-29T17:21:18.818Z,43.10
2023-03-29T17:23:46.175Z,43.50
2023-03-29T17:26:13.488Z,43.80
2023-03-29T17:28:40.797Z,43.30
2023-03-29T17:31:09.712Z,43.00
2023-03-29T17:33:38.257Z,43.30
2023-03-29T17:36:06.277Z,43.50
2023-03-29T17:38:34.439Z,43.40
2023-03-29T17:41:03.068Z,43.40
2023-03-29T17:43:41.292Z,42.90
2023-03-29T17:46:17.651Z,43.20
2023-03-29T17:48:47.822Z,43.50
2023-03-29T17:51:15.105Z,43.90
2023-03-29T17:53:46.776Z,43.10
2023-03-29T17:56:16.570Z,42.80
2023-03-29T17:58:49.200Z,43.40
2023-03-29T18:01:21.492Z,43.50
2023-03-29T18:03:49.276Z,43.20
2023-03-29T18:06:20.416Z,43.50
2023-03-29T18:08:47.774Z,43.60
2023-03-29T18:11:22.281Z,43.60
2023-03-29T18:14:23.772Z,43.70
2023-03-29T18:16:51.165Z,43.60
2023-03-29T18:19:23.151Z,44.00
2023-03-29T18:21:51.240Z,44.40
2023-03-29T18:24:18.516Z,44.90
2023-03-29T18:26:46.039Z,45.40
2023-03-29T18:29:16.439Z,44.90
2023-03-29T18:31:44.123Z,45.00
2023-03-29T18:34:11.404Z,44.60
2023-03-29T18:36:38.720Z,44.70
2023-03-29T18:39:05.982Z,44.60
2023-03-29T18:41:35.781Z,45.10
2023-03-29T18:44:03.816Z,45.70
2023-03-29T18:46:31.941Z,45.90
2023-03-29T18:49:00.889Z,46.10
2023-03-29T18:51:28.391Z,46.10
2023-03-29T18:53:56.620Z,46.30
2023-03-29T18:56:23.961Z,46.80
2023-03-29T18:58:51.645Z,46.60
2023-03-29T19:01:21.331Z,47.20
2023-03-29T19:03:51.779Z,47.30
2023-03-29T19:06:19.400Z,47.60
2023-03-29T19:08:46.592Z,48.00
2023-03-29T19:11:15.049Z,47.90
2023-03-29T19:13:43.175Z,47.70
2023-03-29T19:16:10.511Z,47.50
2023-03-29T19:18:43.496Z,48.00
2023-03-29T19:21:13.396Z,48.70
2023-03-29T19:23:41.253Z,50.20
2023-03-29T19:26:11.780Z,49.90
2023-03-29T19:28:39.922Z,49.40
2023-03-29T19:31:13.138Z,50.80
2023-03-29T19:33:53.026Z,50.90
2023-03-29T19:36:30.370Z,52.50
2023-03-29T19:38:57.897Z,53.90
2023-03-29T19:41:31.599Z,54.90
2023-03-29T19:44:03.220Z,52.60
2023-03-29T19:46:30.953Z,53.50
2023-03-29T19:49:07.199Z,55.50
2023-03-29T19:51:48.840Z,55.90
2023-03-29T19:54:29.540Z,55.30
2023-03-29T19:56:57.594Z,55.70
2023-03-29T19:59:34.163Z,54.40
2023-03-29T20:02:02.650Z,55.00
2023-03-29T20:04:34.811Z,55.90
2023-03-29T20:07:12.070Z,56.60
2023-03-29T20:09:45.225Z,56.40
2023-03-29T20:12:12.820Z,56.00
2023-03-29T20:14:40.471Z,56.40
2023-03-29T20:17:07.766Z,56.10
2023-03-29T20:19:36.874Z,56.20
2023-03-29T20:22:04.777Z,55.90
2023-03-29T20:24:32.778Z,56.60
2023-03-29T20:27:00.143Z,57.10
2023-03-29T20:29:27.775Z,56.60
2023-03-29T20:31:55.062Z,57.30
2023-03-29T20:34:22.474Z,57.40
2023-03-29T20:36:49.880Z,59.10
2023-03-29T20:39:19.011Z,57.70
2023-03-29T20:41:47.914Z,58.10
2023-03-29T20:44:18.630Z,57.10
2023-03-29T20:46:54.617Z,55.20
2023-03-29T20:49:26.623Z,55.80
2023-03-29T20:51:58.591Z,55.80
2023-03-29T20:54:26.650Z,55.90
2023-03-29T20:56:55.079Z,54.60
2023-03-29T20:59:23.198Z,54.00
2023-03-29T21:01:52.359Z,53.90
2023-03-29T21:04:27.346Z,53.80
2023-03-29T21:07:09.920Z,54.00
2023-03-29T21:09:45.009Z,53.10
2023-03-29T21:12:18.430Z,53.10
2023-03-29T21:14:47.634Z,52.30
2023-03-29T21:17:15.358Z,52.10
2023-03-29T21:19:42.637Z,51.70
2023-03-29T21:22:13.831Z,51.90
2023-03-29T21:24:41.458Z,52.20
2023-03-29T21:27:08.724Z,52.80
2023-03-29T21:29:44.057Z,55.20
2023-03-29T21:32:14.391Z,55.30
2023-03-29T21:34:41.716Z,58.30
2023-03-29T21:37:09.045Z,60.80
2023-03-29T21:40:06.430Z,61.20
2023-03-29T21:42:37.106Z,62.20
2023-03-29T21:45:07.666Z,61.40
2023-03-29T21:47:37.827Z,61.60
2023-03-29T21:50:13.072Z,62.20
2023-03-29T21:53:00.619Z,62.40
2023-03-29T21:56:08.862Z,63.60
2023-03-29T21:58:39.641Z,63.90
2023-03-29T22:01:39.929Z,64.40
2023-03-29T22:07:43.424Z,65.50
2023-03-29T22:10:23.264Z,66.40
2023-03-29T22:13:02.568Z,66.30
2023-03-29T22:15:38.608Z,66.20
2023-03-29T22:18:17.754Z,66.50
2023-03-29T22:21:19.532Z,65.90
2023-03-29T22:24:12.219Z,66.20
2023-03-29T22:26:47.215Z,67.30
2023-03-29T22:29:24.975Z,67.20
2023-03-29T22:31:52.482Z,66.60
2023-03-29T22:34:34.124Z,67.80
2023-03-29T22:37:11.007Z,67.70
2023-03-29T22:39:41.545Z,68.00
2023-03-29T22:42:08.784Z,67.90
2023-03-29T22:45:02.280Z,68.60
2023-03-29T22:47:34.348Z,68.50
2023-03-29T22:50:04.665Z,68.70
2023-03-29T22:52:32.316Z,68.40
2023-03-29T22:55:00.854Z,68.40
2023-03-29T22:57:39.881Z,68.70
2023-03-29T23:00:11.819Z,68.90
2023-03-29T23:02:41.990Z,69.20
2023-03-29T23:05:09.483Z,70.20
2023-03-29T23:07:37.073Z,69.60
2023-03-29T23:10:08.123Z,69.40
2023-03-29T23:12:38.186Z,70.30
2023-03-29T23:15:06.599Z,70.10
2023-03-29T23:17:35.086Z,70.20
2023-03-29T23:20:06.023Z,70.00
2023-03-29T23:22:34.433Z,69.60
2023-03-29T23:25:01.706Z,70.20
2023-03-29T23:27:28.984Z,70.40
2023-03-29T23:29:56.498Z,71.10
2023-03-29T23:32:23.891Z,71.80
2023-03-29T23:34:51.166Z,72.00
2023-03-29T23:37:18.609Z,72.20
2023-03-29T23:39:45.832Z,71.90
2023-03-29T23:42:13.073Z,71.60
2023-03-29T23:44:40.404Z,70.80
2023-03-29T23:47:09.422Z,71.70
2023-03-29T23:49:36.803Z,71.70
2023-03-29T23:52:04.232Z,72.10
2023-03-29T23:54:34.257Z,71.80
2023-03-29T23:57:01.626Z,72.00
2023-03-29T23:59:30.854Z,72.60
